Time;durP1;ratioP1;P1;durP2;ratioP2;P2;SDS_P1;SDS_P2;PMS_P1;PMS_P2;Temp;Humidity;BMP_temperature;BMP_pressure;BME280_temperature;BME280_humidity;BME280_pressure;Samples;Min_cycle;Max_cycle;Signal;HPM_P1;HPM_P2
2022/06/05 00:02:39;;;;;;;7.90;7.20;;;20.40;99.90;;;;;;4974427;28;20571;-53
2022/06/05 00:05:22;;;;;;;8.53;7.77;;;20.40;99.90;;;;;;4974144;28;20185;-52
2022/06/05 00:07:53;;;;;;;8.80;8.10;;;20.40;99.90;;;;;;4974619;28;20178;-57
2022/06/05 00:10:38;;;;;;;10.03;9.13;;;20.30;99.90;;;;;;4974198;28;20245;-56
2022/06/05 00:13:21;;;;;;;8.90;8.10;;;20.30;99.90;;;;;;4974473;28;20177;-55
2022/06/05 00:15:46;;;;;;;8.93;8.17;;;20.30;99.90;;;;;;4974089;28;20265;-56
2022/06/05 00:18:13;;;;;;;9.20;8.30;;;20.20;99.90;;;;;;4974196;28;20273;-58
2022/06/05 00:20:41;;;;;;;8.97;8.27;;;20.20;99.90;;;;;;4974017;28;20202;-55
2022/06/05 00:23:07;;;;;;;9.43;8.63;;;20.10;99.90;;;;;;4974193;28;20174;-53
2022/06/05 00:25:57;;;;;;;10.50;9.60;;;20.10;99.90;;;;;;4973987;28;20294;-55
2022/06/05 00:28:38;;;;;;;10.03;9.00;;;20.10;99.90;;;;;;4974086;28;20713;-53
2022/06/05 00:31:03;;;;;;;9.07;8.33;;;20.10;99.90;;;;;;4973999;28;20626;-54
2022/06/05 00:33:36;;;;;;;9.17;8.37;;;20.10;99.90;;;;;;4973841;28;20178;-53
2022/06/05 00:36:17;;;;;;;8.83;8.03;;;20.10;99.90;;;;;;4973966;28;20193;-55
2022/06/05 00:39:07;;;;;;;9.97;8.97;;;20.10;99.90;;;;;;4973824;28;20177;-50
2022/06/05 00:41:58;;;;;;;10.07;9.20;;;20.10;99.90;;;;;;4973819;28;20202;-54
2022/06/05 00:44:33;;;;;;;8.67;7.77;;;19.90;99.90;;;;;;4973616;28;20563;-53
2022/06/05 00:46:59;;;;;;;8.10;7.30;;;19.80;99.90;;;;;;4973734;28;20247;-55
2022/06/05 00:49:32;;;;;;;8.20;7.40;;;19.70;99.90;;;;;;4973625;28;20627;-55
2022/06/05 00:51:58;;;;;;;7.90;7.10;;;19.70;99.90;;;;;;4973796;28;20174;-52
2022/06/05 00:54:23;;;;;;;8.37;7.40;;;19.60;99.90;;;;;;4973346;28;20189;-53
2022/06/05 00:56:49;;;;;;;7.27;6.60;;;19.60;99.90;;;;;;4973604;28;20277;-57
2022/06/05 00:59:19;;;;;;;7.57;6.87;;;19.60;99.90;;;;;;4973379;28;20218;-50
2022/06/05 01:01:44;;;;;;;7.60;6.73;;;19.60;99.90;;;;;;4973472;28;20209;-52
2022/06/05 01:04:10;;;;;;;7.47;6.77;;;19.50;99.90;;;;;;4973214;28;20178;-52
2022/06/05 01:06:36;;;;;;;8.13;6.97;;;19.50;99.90;;;;;;4973303;28;20182;-55
2022/06/05 01:09:05;;;;;;;8.10;7.30;;;19.40;99.90;;;;;;4973142;28;20559;-55
2022/06/05 01:11:45;;;;;;;8.67;7.97;;;19.40;99.90;;;;;;4973426;28;20544;-55
2022/06/05 01:14:45;;;;;;;10.30;8.40;;;19.40;99.90;;;;;;4972637;28;20210;-53
2022/06/05 01:17:42;;;;;;;9.10;8.30;;;19.30;99.90;;;;;;4973288;28;20186;-57
2022/06/05 01:20:41;;;;;;;10.17;9.37;;;19.20;99.90;;;;;;4964903;28;20309;-53
2022/06/05 01:23:27;;;;;;;10.37;9.47;;;19.30;99.90;;;;;;4973118;28;20178;-57
2022/06/05 01:26:19;;;;;;;10.70;9.80;;;19.30;99.90;;;;;;4973078;28;20242;-57
2022/06/05 01:29:07;;;;;;;10.67;9.77;;;19.20;99.90;;;;;;4973037;28;20174;-55
2022/06/05 01:31:39;;;;;;;11.90;10.90;;;19.20;99.90;;;;;;4973055;28;20182;-54
2022/06/05 01:34:32;;;;;;;11.80;10.17;;;19.30;99.90;;;;;;4972828;28;20287;-53
2022/06/05 01:37:07;;;;;;;11.70;10.80;;;19.30;99.90;;;;;;4972796;28;20710;-56
2022/06/05 01:40:05;;;;;;;12.33;11.30;;;19.20;99.90;;;;;;4972778;28;20201;-57
2022/06/05 01:42:57;;;;;;;11.90;10.80;;;19.20;99.90;;;;;;4972838;28;20201;-50
2022/06/05 01:45:36;;;;;;;11.97;10.87;;;19.10;99.90;;;;;;4972530;28;20154;-54
2022/06/05 01:48:06;;;;;;;12.00;11.00;;;19.20;99.90;;;;;;4971777;28;20587;-55
2022/06/05 01:50:41;;;;;;;12.50;11.40;;;19.20;99.90;;;;;;4972505;28;20281;-54
2022/06/05 01:53:19;;;;;;;13.10;11.90;;;19.20;99.90;;;;;;4972683;28;20698;-55
2022/06/05 01:55:57;;;;;;;11.73;10.73;;;19.30;99.90;;;;;;4972403;28;20707;-58
2022/06/05 01:58:34;;;;;;;11.70;10.80;;;19.30;99.90;;;;;;4972528;28;20204;-56
2022/06/05 02:01:04;;;;;;;11.40;10.47;;;19.40;99.90;;;;;;4972503;28;20214;-51
2022/06/05 02:03:48;;;;;;;11.13;10.23;;;19.40;99.90;;;;;;4972299;28;20177;-58
2022/06/05 02:06:19;;;;;;;11.27;10.33;;;19.40;99.90;;;;;;4972348;28;20166;-54
2022/06/05 02:08:48;;;;;;;10.90;9.90;;;19.40;99.90;;;;;;4972347;28;20163;-55
2022/06/05 02:11:18;;;;;;;10.30;9.47;;;19.40;99.90;;;;;;4972567;28;20609;-56
2022/06/05 02:13:43;;;;;;;10.60;9.60;;;19.50;99.90;;;;;;4972148;28;20233;-55
2022/06/05 02:16:09;;;;;;;11.13;10.23;;;19.50;99.90;;;;;;4972397;28;20574;-55
2022/06/05 02:18:35;;;;;;;10.50;9.53;;;19.50;99.90;;;;;;4972217;28;20169;-54
2022/06/05 02:21:03;;;;;;;10.90;10.00;;;19.50;99.90;;;;;;4972787;28;20206;-49
2022/06/05 02:23:34;;;;;;;10.30;9.50;;;19.50;99.90;;;;;;5060418;22;20219;-56
2022/06/05 02:26:05;;;;;;;10.07;9.23;;;19.50;99.90;;;;;;5045174;28;20226;-55
2022/06/05 02:28:30;;;;;;;10.30;9.40;;;19.50;99.90;;;;;;5046935;28;20214;-54
2022/06/05 02:31:00;;;;;;;9.50;8.70;;;19.50;99.90;;;;;;5054375;28;20207;-54
2022/06/05 02:33:43;;;;;;;10.07;9.27;;;19.50;99.90;;;;;;5052082;28;20196;-54
2022/06/05 02:36:37;;;;;;;9.40;8.60;;;19.50;99.90;;;;;;5033600;28;20183;-53
2022/06/05 02:39:09;;;;;;;9.70;8.90;;;19.50;99.90;;;;;;5055062;28;20171;-54
2022/06/05 02:41:44;;;;;;;9.43;8.63;;;19.40;99.90;;;;;;5052685;28;20206;-51
2022/06/05 02:44:29;;;;;;;10.27;9.47;;;19.40;99.90;;;;;;5052626;28;20171;-55
2022/06/05 02:47:06;;;;;;;10.80;9.90;;;19.40;99.90;;;;;;5054133;28;20171;-52
2022/06/05 02:49:55;;;;;;;10.40;9.60;;;19.40;99.90;;;;;;5054857;28;20195;-53
2022/06/05 02:52:23;;;;;;;10.27;9.47;;;19.40;99.90;;;;;;5050538;28;20257;-56
2022/06/05 02:54:59;;;;;;;10.80;9.80;;;19.40;99.90;;;;;;5053215;28;20553;-54
2022/06/05 02:57:25;;;;;;;10.53;9.63;;;19.30;99.90;;;;;;5053828;28;20676;-55
2022/06/05 02:59:50;;;;;;;10.83;9.83;;;19.30;99.90;;;;;;5054574;28;20237;-52
2022/06/05 03:05:00;;;;;;;11.37;10.37;;;19.20;99.90;;;;;;5054207;28;20183;-55
2022/06/05 03:07:25;;;;;;;10.20;9.30;;;19.20;99.90;;;;;;5054924;28;20171;-55
2022/06/05 03:09:51;;;;;;;10.63;9.63;;;19.20;99.90;;;;;;5053860;28;20179;-52
2022/06/05 03:12:16;;;;;;;9.90;9.00;;;19.20;99.90;;;;;;5054418;28;20199;-56
2022/06/05 03:14:42;;;;;;;10.93;10.03;;;19.20;99.90;;;;;;5054670;28;20201;-57
2022/06/05 03:17:07;;;;;;;9.30;8.60;;;19.20;99.90;;;;;;5054721;28;20179;-53
2022/06/05 03:19:33;;;;;;;10.03;9.23;;;19.20;99.90;;;;;;5054483;28;20178;-53
2022/06/05 03:21:59;;;;;;;8.97;8.20;;;19.20;99.90;;;;;;5054172;28;20211;-52
2022/06/05 03:24:24;;;;;;;9.90;9.10;;;19.20;99.90;;;;;;5054147;28;20198;-55
2022/06/05 03:26:50;;;;;;;10.50;9.50;;;19.20;99.90;;;;;;5053803;28;20222;-54
2022/06/05 03:29:15;;;;;;;10.13;9.23;;;19.10;99.90;;;;;;5054114;28;20171;-56
2022/06/05 03:31:41;;;;;;;9.83;9.03;;;19.20;99.90;;;;;;5054216;28;20198;-55
2022/06/05 03:34:08;;;;;;;9.47;8.67;;;19.10;99.90;;;;;;5054010;28;20194;-55
2022/06/05 03:36:34;;;;;;;10.10;9.20;;;19.10;99.90;;;;;;5054177;28;20205;-55
2022/06/05 03:38:59;;;;;;;10.33;9.43;;;19.10;99.90;;;;;;5053479;28;20641;-55
2022/06/05 03:41:25;;;;;;;9.97;9.07;;;19.10;99.90;;;;;;5054093;28;20205;-55
2022/06/05 03:43:51;;;;;;;9.73;8.93;;;19.10;99.90;;;;;;5053838;28;20579;-56
2022/06/05 03:46:16;;;;;;;9.90;9.10;;;19.10;99.90;;;;;;5054044;28;20170;-53
2022/06/05 03:48:43;;;;;;;11.73;10.73;;;19.10;99.90;;;;;;5053771;28;20218;-56
2022/06/05 03:51:12;;;;;;;11.53;10.53;;;19.10;99.90;;;;;;5054048;28;20266;-56
2022/06/05 03:53:38;;;;;;;12.40;11.30;;;19.10;99.90;;;;;;5053702;28;20170;-53
2022/06/05 03:56:11;;;;;;;12.20;11.07;;;19.10;99.90;;;;;;5053808;28;20167;-53
2022/06/05 03:58:37;;;;;;;12.00;11.00;;;19.20;99.90;;;;;;5053879;28;20162;-54
2022/06/05 04:01:07;;;;;;;11.10;10.20;;;19.20;99.90;;;;;;5052820;28;20196;-55
2022/06/05 04:03:33;;;;;;;11.80;10.80;;;19.10;99.90;;;;;;5053218;28;20175;-54
2022/06/05 04:05:58;;;;;;;12.10;11.10;;;19.20;99.90;;;;;;5053663;28;20258;-57
2022/06/05 04:08:25;;;;;;;11.80;10.80;;;19.20;99.90;;;;;;5053714;28;20219;-54
2022/06/05 04:10:50;;;;;;;11.40;10.40;;;19.20;99.90;;;;;;5053578;28;20211;-53
2022/06/05 04:13:16;;;;;;;11.30;10.40;;;19.30;99.90;;;;;;5053490;28;20192;-53
2022/06/05 04:15:42;;;;;;;11.73;10.77;;;19.40;99.90;;;;;;5053191;28;20170;-58
2022/06/05 04:18:08;;;;;;;12.30;11.20;;;19.50;99.90;;;;;;5053398;28;20755;-52
2022/06/05 04:20:37;;;;;;;12.20;11.10;;;19.50;99.90;;;;;;5053329;28;20199;-56
2022/06/05 04:23:04;;;;;;;12.57;11.37;;;19.50;99.90;;;;;;5053213;28;20207;-57
2022/06/05 04:25:29;;;;;;;11.07;10.17;;;19.50;99.90;;;;;;5053162;28;20194;-56
2022/06/05 04:27:56;;;;;;;10.87;9.97;;;19.50;99.90;;;;;;5053307;28;20179;-57
2022/06/05 04:30:25;;;;;;;11.33;10.23;;;19.60;99.90;;;;;;5053233;28;20172;-57
2022/06/05 04:32:50;;;;;;;10.23;9.33;;;19.70;99.90;;;;;;5052981;28;20225;-54
2022/06/05 04:35:16;;;;;;;11.10;10.10;;;19.70;99.90;;;;;;5052932;28;20214;-53
2022/06/05 04:37:42;;;;;;;11.27;10.30;;;19.70;99.90;;;;;;5053019;28;20258;-57
2022/06/05 04:40:08;;;;;;;10.70;9.80;;;19.90;99.90;;;;;;5053022;28;20636;-56
2022/06/05 04:42:34;;;;;;;10.63;9.83;;;20.00;99.90;;;;;;5053257;28;20613;-57
2022/06/05 04:45:00;;;;;;;12.00;10.90;;;20.10;99.90;;;;;;5052657;28;20210;-55
2022/06/05 04:47:26;;;;;;;10.63;9.73;;;20.10;99.90;;;;;;5052870;28;20240;-55
2022/06/05 04:49:51;;;;;;;10.83;9.93;;;20.10;99.90;;;;;;5051654;28;20168;-54
2022/06/05 04:52:17;;;;;;;10.37;9.53;;;20.20;99.90;;;;;;5052796;28;20195;-55
2022/06/05 04:54:42;;;;;;;11.30;10.40;;;20.20;99.90;;;;;;5049745;28;20241;-54
2022/06/05 04:57:08;;;;;;;11.03;10.13;;;20.30;99.90;;;;;;5061879;28;20209;-53
2022/06/05 04:59:33;;;;;;;10.47;9.57;;;20.40;99.90;;;;;;5054555;28;20248;-57
2022/06/05 05:01:59;;;;;;;10.20;9.33;;;20.40;99.90;;;;;;5049929;28;20229;-57
2022/06/05 05:04:24;;;;;;;10.23;9.43;;;20.50;99.90;;;;;;5051832;28;20284;-56
2022/06/05 05:06:50;;;;;;;10.30;9.40;;;20.60;99.90;;;;;;5050309;28;20229;-54
2022/06/05 05:09:16;;;;;;;9.77;8.97;;;20.70;99.90;;;;;;5051518;28;20530;-58
2022/06/05 05:11:41;;;;;;;9.27;8.47;;;20.80;99.90;;;;;;5049372;28;20210;-57
2022/06/05 05:14:09;;;;;;;9.40;8.60;;;20.80;99.90;;;;;;5037996;28;20201;-53
2022/06/05 05:16:35;;;;;;;9.43;8.53;;;20.90;99.90;;;;;;5050916;28;20198;-58
2022/06/05 05:19:00;;;;;;;9.70;8.80;;;21.00;99.90;;;;;;5043381;28;20175;-56
2022/06/05 05:21:26;;;;;;;9.88;8.98;;;21.10;99.90;;;;;;5050747;28;20201;-56
2022/06/05 05:23:53;;;;;;;9.00;8.30;;;21.20;99.90;;;;;;5049569;28;20618;-51
2022/06/05 05:26:20;;;;;;;8.65;7.95;;;21.20;99.90;;;;;;5049826;28;20266;-50
2022/06/05 05:28:47;;;;;;;8.52;7.82;;;21.40;99.90;;;;;;5049299;28;20603;-57
2022/06/05 05:31:19;;;;;;;8.50;7.80;;;21.30;99.90;;;;;;5057769;28;20191;-56
2022/06/05 05:33:47;;;;;;;8.88;8.18;;;21.40;99.90;;;;;;5053472;28;20254;-55
2022/06/05 05:36:12;;;;;;;8.38;7.68;;;21.50;99.90;;;;;;5052220;28;20223;-54
2022/06/05 05:38:38;;;;;;;8.63;7.85;;;21.50;99.90;;;;;;5049165;28;20181;-57
2022/06/05 05:43:48;;;;;;;8.00;7.30;;;21.70;99.90;;;;;;5049912;28;20205;-55
2022/06/05 05:46:15;;;;;;;8.30;7.60;;;21.70;99.90;;;;;;5049328;28;20193;-56
2022/06/05 05:48:41;;;;;;;7.70;7.10;;;21.70;99.90;;;;;;5052220;28;20181;-60
2022/06/05 05:51:15;;;;;;;7.70;7.00;;;21.70;99.90;;;;;;5041684;28;20199;-54
2022/06/05 05:53:41;;;;;;;8.30;7.47;;;21.90;99.90;;;;;;5047179;28;20178;-57
2022/06/05 05:56:12;;;;;;;7.78;7.07;;;21.90;99.90;;;;;;5050625;28;20213;-58
2022/06/05 05:58:38;;;;;;;7.00;6.40;;;22.00;99.90;;;;;;5051572;28;20229;-54
2022/06/05 06:01:08;;;;;;;7.90;7.20;;;22.10;99.90;;;;;;5051000;28;20182;-54
2022/06/05 06:03:34;;;;;;;7.53;6.93;;;22.10;99.90;;;;;;5051313;28;20663;-56
2022/06/05 06:06:01;;;;;;;7.55;6.95;;;22.10;99.90;;;;;;5051296;28;20313;-56
2022/06/05 06:08:28;;;;;;;7.82;7.22;;;22.10;99.90;;;;;;5050075;28;20183;-53
2022/06/05 06:10:54;;;;;;;8.32;7.63;;;22.00;99.90;;;;;;5046940;28;20182;-57
2022/06/05 06:13:19;;;;;;;8.02;7.32;;;22.00;99.90;;;;;;5049740;28;20198;-57
2022/06/05 06:15:45;;;;;;;7.88;7.18;;;21.80;99.90;;;;;;5050577;28;20213;-55
2022/06/05 06:18:11;;;;;;;7.97;7.38;;;21.90;99.90;;;;;;5051343;28;20182;-55
2022/06/05 06:20:36;;;;;;;8.68;7.88;;;21.90;99.90;;;;;;5051288;28;20175;-56
2022/06/05 06:23:02;;;;;;;9.20;8.40;;;22.00;99.90;;;;;;5050985;28;20233;-57
2022/06/05 06:25:28;;;;;;;8.48;7.78;;;22.00;99.90;;;;;;5032056;28;20174;-57
2022/06/05 06:27:53;;;;;;;8.18;7.38;;;22.00;99.90;;;;;;5051310;28;20531;-55
2022/06/05 06:30:19;;;;;;;8.85;8.05;;;21.90;99.90;;;;;;5051246;28;20171;-57
2022/06/05 06:32:44;;;;;;;9.40;8.60;;;21.80;99.90;;;;;;5051204;28;20203;-56
2022/06/05 06:35:10;;;;;;;8.82;8.05;;;21.80;99.90;;;;;;5051160;28;20179;-57
2022/06/05 06:37:36;;;;;;;9.50;8.70;;;22.00;99.90;;;;;;5051227;28;20540;-53
2022/06/05 06:40:01;;;;;;;9.13;8.27;;;22.10;99.90;;;;;;5051134;28;20163;-57
2022/06/05 06:42:27;;;;;;;9.65;8.75;;;22.10;99.90;;;;;;5050967;28;20710;-56
2022/06/05 06:44:52;;;;;;;9.30;8.50;;;22.10;99.90;;;;;;5050769;28;20168;-55
2022/06/05 06:47:18;;;;;;;9.70;8.90;;;22.30;99.90;;;;;;5051477;28;20236;-56
2022/06/05 06:49:44;;;;;;;9.45;8.55;;;22.20;99.90;;;;;;5051157;28;20175;-55
2022/06/05 06:52:10;;;;;;;9.27;8.40;;;22.10;99.90;;;;;;5050886;28;20722;-57
2022/06/05 06:54:35;;;;;;;8.88;8.05;;;22.10;99.90;;;;;;5050872;28;20656;-55
2022/06/05 06:57:01;;;;;;;9.00;8.20;;;22.20;99.90;;;;;;5051145;28;20536;-56
2022/06/05 06:59:28;;;;;;;8.43;7.63;;;22.30;99.90;;;;;;5033053;28;20660;-56
2022/06/05 07:01:54;;;;;;;9.45;8.48;;;22.40;99.90;;;;;;5050763;28;20253;-55
2022/06/05 07:04:21;;;;;;;8.60;7.90;;;22.50;99.90;;;;;;5050766;28;20167;-55
2022/06/05 07:06:47;;;;;;;8.20;7.50;;;22.60;99.90;;;;;;5050915;28;20167;-57
2022/06/05 07:09:14;;;;;;;9.13;8.32;;;22.60;99.90;;;;;;5050931;28;20514;-57
2022/06/05 07:11:40;;;;;;;8.60;7.90;;;22.60;99.90;;;;;;5050793;28;20607;-58
2022/06/05 07:14:06;;;;;;;8.35;7.63;;;22.70;99.90;;;;;;5053262;28;20545;-57
2022/06/05 07:16:31;;;;;;;8.52;7.82;;;22.90;99.90;;;;;;5054706;28;20171;-56
2022/06/05 07:18:57;;;;;;;8.40;7.60;;;22.90;99.90;;;;;;5054620;28;20545;-55
2022/06/05 07:21:25;;;;;;;8.60;7.90;;;22.90;99.90;;;;;;5054069;28;20262;-57
2022/06/05 07:23:50;;;;;;;8.10;7.30;;;22.90;99.90;;;;;;5054436;28;20163;-55
2022/06/05 07:26:19;;;;;;;8.98;8.07;;;22.90;99.90;;;;;;5054148;28;20260;-55
2022/06/05 07:28:45;;;;;;;8.55;7.75;;;23.10;99.90;;;;;;5054084;28;20305;-55
2022/06/05 07:31:13;;;;;;;8.57;7.88;;;23.20;99.90;;;;;;5054300;28;20262;-53
2022/06/05 07:33:41;;;;;;;8.25;7.55;;;23.40;99.90;;;;;;5054287;28;20241;-55
2022/06/05 07:36:10;;;;;;;8.05;7.35;;;23.30;99.90;;;;;;5054252;28;20167;-56
2022/06/05 07:38:36;;;;;;;8.35;7.65;;;23.40;99.90;;;;;;5054063;28;20175;-55
2022/06/05 07:41:03;;;;;;;7.45;6.80;;;23.40;99.90;;;;;;5054243;28;20198;-52
2022/06/05 07:43:29;;;;;;;8.43;7.57;;;23.60;99.90;;;;;;5053803;28;20266;-53
2022/06/05 07:45:54;;;;;;;7.88;7.28;;;23.80;99.90;;;;;;5054097;28;20306;-54
2022/06/05 07:48:20;;;;;;;7.85;7.07;;;24.00;99.90;;;;;;5053790;28;20540;-56
2022/06/05 07:56:15;;;;;;;8.07;6.70;;;24.40;99.90;;;;;;5054112;28;20640;-53
2022/06/05 07:58:41;;;;;;;7.18;6.57;;;24.30;99.90;;;;;;5053707;28;20258;-53
2022/06/05 08:01:07;;;;;;;6.68;6.18;;;24.20;99.90;;;;;;5053795;28;20513;-54
2022/06/05 08:03:35;;;;;;;7.38;6.78;;;24.20;99.90;;;;;;5053473;28;20194;-56
2022/06/05 08:06:00;;;;;;;7.55;6.80;;;24.00;99.90;;;;;;5053798;28;20168;-58
2022/06/05 08:08:26;;;;;;;7.32;6.72;;;24.00;99.90;;;;;;5053787;28;20796;-54
2022/06/05 08:10:51;;;;;;;6.93;6.32;;;24.30;99.90;;;;;;5053824;28;20678;-57
2022/06/05 08:13:17;;;;;;;7.07;6.38;;;24.50;99.90;;;;;;5053340;28;20195;-57
2022/06/05 08:15:44;;;;;;;7.22;6.50;;;24.60;99.90;;;;;;5053350;28;20263;-58
2022/06/05 08:18:10;;;;;;;6.90;6.28;;;24.60;99.90;;;;;;5053522;28;20565;-53
2022/06/05 08:20:35;;;;;;;6.90;6.30;;;24.80;99.90;;;;;;5053329;28;20247;-55
2022/06/05 08:23:02;;;;;;;6.38;5.88;;;25.10;99.90;;;;;;5068497;22;20693;-55
2022/06/05 08:25:28;;;;;;;7.10;6.50;;;25.30;99.90;;;;;;5023271;28;20176;-58
2022/06/05 08:27:53;;;;;;;6.55;6.03;;;25.40;99.90;;;;;;5018175;28;20224;-54
2022/06/05 08:30:19;;;;;;;6.28;5.75;;;25.50;99.90;;;;;;5013045;28;20181;-57
2022/06/05 08:32:45;;;;;;;6.18;5.68;;;25.70;99.90;;;;;;5004235;28;20301;-56
2022/06/05 08:35:10;;;;;;;6.15;5.65;;;25.70;99.90;;;;;;4993491;28;20188;-54
2022/06/05 08:43:30;;;;;;;6.03;5.50;;;26.00;99.90;;;;;;5012802;28;20315;-55
2022/06/05 08:46:29;;;;;;;6.78;6.20;;;26.20;99.90;;;;;;5013149;28;20244;-55
2022/06/05 08:48:56;;;;;;;6.10;5.60;;;26.40;99.90;;;;;;5012823;28;20654;-57
2022/06/05 08:51:25;;;;;;;6.43;5.93;;;26.30;99.90;;;;;;5013035;28;20644;-56
2022/06/05 08:53:56;;;;;;;5.38;4.88;;;26.00;99.90;;;;;;5012840;28;20201;-56
2022/06/05 08:56:34;;;;;;;6.03;5.53;;;26.00;99.90;;;;;;5012069;28;20181;-58
2022/06/05 08:59:25;;;;;;;5.72;5.25;;;26.20;99.90;;;;;;5012603;28;20191;-57
2022/06/05 09:02:00;;;;;;;5.70;5.30;;;26.60;99.90;;;;;;5012671;28;20211;-56
2022/06/05 09:04:45;;;;;;;5.40;5.00;;;26.80;99.90;;;;;;5012637;28;20641;-57
2022/06/05 09:07:24;;;;;;;6.82;5.00;;;26.90;99.90;;;;;;5012914;28;20248;-57
2022/06/05 09:10:03;;;;;;;5.50;5.10;;;27.20;99.90;;;;;;5012564;28;20160;-58
2022/06/05 09:13:00;;;;;;;5.95;5.45;;;27.30;99.90;;;;;;5012584;28;20215;-59
2022/06/05 09:15:30;;;;;;;5.07;4.75;;;27.40;99.90;;;;;;4951792;29;20502;-57
2022/06/05 09:17:58;;;;;;;5.65;5.15;;;27.30;99.90;;;;;;4951999;29;20186;-59
2022/06/05 09:20:32;;;;;;;5.60;5.10;;;27.40;99.90;;;;;;4951898;29;20191;-58
2022/06/05 09:23:04;;;;;;;5.82;5.32;;;27.60;99.90;;;;;;4951680;28;20281;-56
2022/06/05 09:25:45;;;;;;;6.20;5.22;;;27.80;99.90;;;;;;4951690;29;20269;-56
2022/06/05 09:28:21;;;;;;;5.07;4.57;;;27.40;99.90;;;;;;4951935;29;20174;-56
2022/06/05 09:31:20;;;;;;;5.28;4.80;;;28.00;99.90;;;;;;4947025;29;20194;-56
2022/06/05 09:33:48;;;;;;;4.78;4.38;;;28.00;99.90;;;;;;4939722;29;20205;-58
2022/06/05 09:36:18;;;;;;;5.35;4.85;;;28.00;99.90;;;;;;4951199;28;20647;-56
2022/06/05 09:38:49;;;;;;;6.03;4.78;;;28.20;99.90;;;;;;4951664;29;20182;-57
2022/06/05 09:41:42;;;;;;;4.45;4.15;;;28.10;99.90;;;;;;4951515;29;20230;-57
2022/06/05 09:44:38;;;;;;;4.85;4.45;;;28.30;99.90;;;;;;4951311;29;20253;-57
2022/06/05 09:47:30;;;;;;;4.90;4.50;;;28.40;99.90;;;;;;4951554;29;20174;-58
2022/06/05 09:50:01;;;;;;;5.95;4.70;;;28.40;99.90;;;;;;4950865;29;20247;-58
2022/06/05 09:52:29;;;;;;;5.32;4.82;;;28.50;99.90;;;;;;4982854;28;20706;-57
2022/06/05 09:55:02;;;;;;;5.45;4.85;;;28.60;99.90;;;;;;4992224;28;20605;-59
2022/06/05 10:00:48;;;;;;;5.05;4.60;;;28.60;99.90;;;;;;4992447;28;20607;-58
2022/06/05 10:03:26;;;;;;;4.47;4.18;;;28.90;99.90;;;;;;4992079;28;20212;-58
2022/06/05 10:06:10;;;;;;;4.80;4.40;;;29.10;99.90;;;;;;4992233;28;20170;-59
2022/06/05 10:09:01;;;;;;;4.47;4.07;;;29.30;99.90;;;;;;4992190;28;20165;-56
2022/06/05 10:11:42;;;;;;;4.45;4.05;;;29.50;99.90;;;;;;4951084;29;20629;-56
2022/06/05 10:14:43;;;;;;;4.30;4.00;;;29.80;99.90;;;;;;4950870;29;20556;-53
2022/06/05 10:17:39;;;;;;;4.50;3.70;;;30.10;99.90;;;;;;4894104;29;20710;-51
2022/06/05 10:20:15;;;;;;;4.40;4.10;;;30.30;99.90;;;;;;4894092;29;20169;-53
2022/06/05 10:22:57;;;;;;;5.15;4.75;;;30.50;99.90;;;;;;4893779;29;20220;-53
2022/06/05 10:25:47;;;;;;;4.80;4.50;;;30.80;99.90;;;;;;4893877;29;20161;-54
2022/06/05 10:28:20;;;;;;;4.55;4.18;;;30.90;99.90;;;;;;4893957;29;20200;-58
2022/06/05 10:31:07;;;;;;;5.28;4.80;;;30.80;99.90;;;;;;4894083;29;20185;-56
2022/06/05 10:33:39;;;;;;;5.32;4.50;;;30.70;99.90;;;;;;4893542;29;20244;-54
2022/06/05 10:36:51;;;;;;;4.90;4.38;;;30.70;99.90;;;;;;4894017;29;20268;-57
2022/06/05 10:39:36;;;;;;;4.40;4.00;;;30.70;99.90;;;;;;4796760;29;20556;-57
2022/06/05 10:42:15;;;;;;;4.43;4.03;;;30.70;99.90;;;;;;4801558;29;20247;-54
2022/06/05 10:45:05;;;;;;;5.22;4.18;;;30.70;99.90;;;;;;4801764;29;20267;-54
2022/06/05 10:48:01;;;;;;;4.30;3.90;;;30.90;99.90;;;;;;4801975;29;20275;-57
2022/06/05 10:50:59;;;;;;;4.35;3.95;;;31.10;99.90;;;;;;4805504;29;20180;-53
2022/06/05 10:53:40;;;;;;;4.57;4.18;;;31.00;99.90;;;;;;4848716;29;20215;-54
2022/06/05 10:56:26;;;;;;;4.88;4.47;;;30.90;99.90;;;;;;4897512;29;20187;-57
2022/06/05 10:59:19;;;;;;;4.45;4.15;;;30.90;99.90;;;;;;4897567;29;20245;-56
2022/06/05 11:02:14;;;;;;;4.13;3.72;;;31.10;99.90;;;;;;4897387;29;20202;-57
2022/06/05 11:05:04;;;;;;;5.10;4.00;;;31.10;99.90;;;;;;4897301;29;20177;-52
2022/06/05 11:07:46;;;;;;;5.32;4.13;;;31.00;99.90;;;;;;4881764;29;20588;-56
2022/06/05 11:13:39;;;;;;;4.53;4.10;;;30.90;99.90;;;;;;4897311;29;20165;-54
2022/06/05 11:16:17;;;;;;;4.45;4.15;;;30.50;99.90;;;;;;4995572;28;20180;-55
2022/06/05 11:19:08;;;;;;;4.38;4.05;;;30.60;99.90;;;;;;4995365;28;20173;-53
2022/06/05 11:21:34;;;;;;;5.28;3.80;;;31.00;99.90;;;;;;4995240;28;20197;-56
2022/06/05 11:24:01;;;;;;;4.32;3.80;;;31.30;99.90;;;;;;4994702;28;20205;-56
2022/06/05 11:26:40;;;;;;;4.43;3.80;;;31.10;99.90;;;;;;4995169;28;20209;-54
2022/06/05 11:29:09;;;;;;;4.13;3.70;;;31.10;99.90;;;;;;4994999;28;20188;-56
2022/06/05 11:31:53;;;;;;;3.53;3.28;;;31.20;99.90;;;;;;4994791;28;20767;-56
2022/06/05 11:34:40;;;;;;;3.95;3.65;;;31.30;99.90;;;;;;4994704;28;20177;-55
2022/06/05 11:37:39;;;;;;;4.22;3.80;;;31.40;99.90;;;;;;4995072;28;20236;-54
2022/06/05 11:40:20;;;;;;;4.03;3.72;;;31.50;99.90;;;;;;4994735;28;20196;-59
2022/06/05 11:43:07;;;;;;;4.03;3.53;;;31.50;99.90;;;;;;4994879;28;20297;-56
2022/06/05 11:45:51;;;;;;;4.20;3.58;;;31.60;99.90;;;;;;4994605;28;20183;-58
2022/06/05 11:48:36;;;;;;;3.55;3.30;;;31.60;99.90;;;;;;4994437;28;20244;-58
2022/06/05 11:51:12;;;;;;;3.92;3.63;;;31.70;99.90;;;;;;4994789;28;20154;-58
2022/06/05 11:53:54;;;;;;;4.28;3.85;;;31.70;99.90;;;;;;4994086;28;20227;-56
2022/06/05 11:56:35;;;;;;;4.88;4.00;;;31.80;99.90;;;;;;4994517;28;20172;-58
2022/06/05 11:59:16;;;;;;;4.50;4.10;;;31.90;99.90;;;;;;4994001;28;20176;-56
2022/06/05 12:01:49;;;;;;;4.20;3.90;;;31.90;99.90;;;;;;4994395;28;20212;-57
2022/06/05 12:04:44;;;;;;;3.92;3.63;;;31.70;99.90;;;;;;4994208;28;20188;-55
2022/06/05 12:07:13;;;;;;;4.38;3.97;;;31.50;99.90;;;;;;4994430;28;20154;-57
2022/06/05 12:09:49;;;;;;;4.30;4.00;;;31.30;99.90;;;;;;4994288;28;20169;-58
2022/06/05 12:12:23;;;;;;;4.60;4.20;;;31.30;99.90;;;;;;4994375;28;20284;-57
2022/06/05 12:15:03;;;;;;;4.45;4.07;;;31.40;99.90;;;;;;4994224;28;20227;-58
2022/06/05 12:18:00;;;;;;;4.90;4.40;;;31.40;99.90;;;;;;4994206;28;20872;-57
2022/06/05 12:20:41;;;;;;;4.55;4.18;;;30.80;99.90;;;;;;4992061;28;20659;-57
2022/06/05 12:23:30;;;;;;;5.03;4.10;;;30.70;99.90;;;;;;4993805;28;20219;-57
2022/06/05 12:26:21;;;;;;;4.85;4.32;;;30.70;99.90;;;;;;4994113;28;20162;-56
2022/06/05 12:28:51;;;;;;;4.47;3.70;;;30.80;99.90;;;;;;4994035;28;20165;-54
2022/06/05 12:31:27;;;;;;;4.80;4.40;;;30.90;99.90;;;;;;4993879;28;20185;-58
2022/06/05 12:34:03;;;;;;;4.38;4.00;;;30.90;99.90;;;;;;4993426;28;20255;-57
2022/06/05 12:36:39;;;;;;;4.30;3.95;;;30.90;99.90;;;;;;4993884;28;20173;-57
2022/06/05 12:39:22;;;;;;;4.50;4.15;;;30.90;99.90;;;;;;4993888;28;20165;-56
2022/06/05 12:42:10;;;;;;;4.63;4.22;;;30.60;99.90;;;;;;4993625;28;20185;-55
2022/06/05 12:44:46;;;;;;;5.60;4.30;;;30.50;99.90;;;;;;4993477;28;20176;-55
2022/06/05 12:47:39;;;;;;;5.82;4.60;;;30.10;99.90;;;;;;4993814;28;20201;-54
2022/06/05 12:50:23;;;;;;;5.32;4.88;;;29.60;99.90;;;;;;4993465;28;20165;-55
2022/06/05 12:52:58;;;;;;;4.90;4.50;;;29.80;99.90;;;;;;4993302;28;20193;-56
2022/06/05 12:55:54;;;;;;;4.43;4.00;;;30.10;99.90;;;;;;4995228;28;20208;-56
2022/06/05 12:58:38;;;;;;;4.90;4.50;;;30.50;99.90;;;;;;5012703;28;20264;-54
2022/06/05 13:01:11;;;;;;;4.90;4.50;;;30.70;99.90;;;;;;5012670;28;20839;-57
2022/06/05 13:04:06;;;;;;;4.65;4.25;;;30.90;99.90;;;;;;5012519;28;20197;-56
2022/06/05 13:06:51;;;;;;;4.70;4.30;;;31.20;99.90;;;;;;5012727;28;20157;-53
2022/06/05 13:09:51;;;;;;;4.50;4.20;;;31.20;99.90;;;;;;5012367;28;20175;-54
2022/06/05 13:12:42;;;;;;;4.55;4.10;;;31.20;99.90;;;;;;5011848;28;20188;-57
2022/06/05 13:15:39;;;;;;;4.55;4.25;;;30.70;99.90;;;;;;5012270;28;20549;-56
2022/06/05 13:18:28;;;;;;;4.88;4.47;;;30.70;99.90;;;;;;5011944;28;20188;-55
2022/06/05 13:21:23;;;;;;;4.57;4.18;;;30.80;99.90;;;;;;5004305;28;20184;-54
2022/06/05 13:24:29;;;;;;;5.10;4.15;;;30.60;99.90;;;;;;5012062;28;20698;-58
2022/06/05 13:27:24;;;;;;;5.30;4.47;;;30.60;99.90;;;;;;5012446;28;20164;-56
2022/06/05 13:30:04;;;;;;;4.40;4.10;;;30.90;99.90;;;;;;5012355;28;20173;-55
2022/06/05 13:32:48;;;;;;;3.97;3.63;;;31.30;99.90;;;;;;5012382;28;20200;-56
2022/06/05 13:35:22;;;;;;;4.15;3.75;;;31.30;99.90;;;;;;5012097;28;20168;-57
2022/06/05 13:38:26;;;;;;;3.92;3.63;;;31.60;99.90;;;;;;5012459;28;20622;-53
2022/06/05 13:41:05;;;;;;;4.10;3.80;;;31.80;99.60;;;;;;4951445;29;20190;-58
2022/06/05 13:43:36;;;;;;;4.28;3.97;;;31.80;99.00;;;;;;4951469;28;20763;-56